createdAt,value
2023-01-18T00:00:00.080Z,3.20
2023-01-18T00:00:31.080Z,3.30
2023-01-18T00:01:01.535Z,3.30
2023-01-18T00:01:32.473Z,3.30
2023-01-18T00:02:03.493Z,3.30
2023-01-18T00:02:34.392Z,3.40
2023-01-18T00:03:05.342Z,3.20
2023-01-18T00:03:36.258Z,3.40
2023-01-18T00:04:07.185Z,3.70
2023-01-18T00:04:38.148Z,3.40
2023-01-18T00:05:09.121Z,3.20
2023-01-18T00:05:40.042Z,3.60
2023-01-18T00:06:10.993Z,3.30
2023-01-18T00:06:41.886Z,3.30
2023-01-18T00:07:12.779Z,3.30
2023-01-18T00:07:43.698Z,3.50
2023-01-18T00:08:14.638Z,3.60
2023-01-18T00:08:45.546Z,3.30
2023-01-18T00:09:16.465Z,3.50
2023-01-18T00:10:18.309Z,3.70
2023-01-18T00:10:49.227Z,3.70
2023-01-18T00:11:20.165Z,3.30
2023-01-18T00:11:51.069Z,3.40
2023-01-18T00:12:22.005Z,3.30
2023-01-18T00:12:52.927Z,3.20
2023-01-18T00:13:23.831Z,3.20
2023-01-18T00:13:54.763Z,3.40
2023-01-18T00:14:25.687Z,3.60
2023-01-18T00:14:56.625Z,2.90
2023-01-18T00:15:27.547Z,3.60
2023-01-18T00:15:58.506Z,3.10
2023-01-18T00:16:29.458Z,3.30
2023-01-18T00:17:00.353Z,3.30
2023-01-18T00:17:31.283Z,3.10
2023-01-18T00:18:02.181Z,3.50
2023-01-18T00:18:33.154Z,3.30
2023-01-18T00:19:04.080Z,2.80
2023-01-18T00:19:34.546Z,3.20
2023-01-18T00:20:05.486Z,3.90
2023-01-18T00:20:36.412Z,3.20
2023-01-18T00:21:07.346Z,2.80
2023-01-18T00:21:38.279Z,3.40
2023-01-18T00:22:09.184Z,3.40
2023-01-18T00:22:40.148Z,3.20
2023-01-18T00:23:11.059Z,3.60
2023-01-18T00:23:42.015Z,3.20
2023-01-18T00:24:12.913Z,3.30
2023-01-18T00:24:43.911Z,3.40
2023-01-18T00:25:14.864Z,3.20
2023-01-18T00:25:45.787Z,3.50
2023-01-18T00:26:16.760Z,3.40
2023-01-18T00:26:47.678Z,3.50
2023-01-18T00:27:18.599Z,3.30
2023-01-18T00:27:49.515Z,3.30
2023-01-18T00:28:20.420Z,3.50
2023-01-18T00:28:51.359Z,3.50
2023-01-18T00:29:22.293Z,3.40
2023-01-18T00:29:53.211Z,3.20
2023-01-18T00:30:24.120Z,3.50
2023-01-18T00:30:55.038Z,3.90
2023-01-18T00:31:26.025Z,3.30
2023-01-18T00:32:27.852Z,3.40
2023-01-18T00:32:59.346Z,3.40
2023-01-18T00:33:29.478Z,3.30
2023-01-18T00:34:00.393Z,3.20
2023-01-18T00:34:31.318Z,3.40
2023-01-18T00:35:02.273Z,3.30
2023-01-18T00:35:33.191Z,3.60
2023-01-18T00:36:04.093Z,3.60
2023-01-18T00:36:35.039Z,3.40
2023-01-18T00:37:05.998Z,3.50
2023-01-18T00:37:36.904Z,3.20
2023-01-18T00:38:07.823Z,3.40
2023-01-18T00:38:38.748Z,3.80
2023-01-18T00:39:09.742Z,3.60
2023-01-18T00:39:40.649Z,3.60
2023-01-18T00:40:11.546Z,3.60
2023-01-18T00:40:42.476Z,3.30
2023-01-18T00:41:13.405Z,3.40
2023-01-18T00:41:44.339Z,3.40
2023-01-18T00:42:15.275Z,3.60
2023-01-18T00:42:46.177Z,3.30
2023-01-18T00:43:17.107Z,3.40
2023-01-18T00:43:48.043Z,3.20
2023-01-18T00:44:18.965Z,3.50
2023-01-18T00:44:49.890Z,3.40
2023-01-18T00:45:20.815Z,3.80
2023-01-18T00:45:51.770Z,3.80
2023-01-18T00:46:22.676Z,3.80
2023-01-18T00:46:53.587Z,3.50
2023-01-18T00:47:24.508Z,3.60
2023-01-18T00:47:55.512Z,3.60
2023-01-18T00:48:26.419Z,3.60
2023-01-18T00:48:57.356Z,3.50
2023-01-18T00:49:28.255Z,3.50
2023-01-18T00:49:59.168Z,3.60
2023-01-18T00:50:30.134Z,3.30
2023-01-18T00:51:01.038Z,3.20
2023-01-18T00:51:31.959Z,3.70
2023-01-18T00:52:02.879Z,3.30
2023-01-18T00:52:33.804Z,3.90
2023-01-18T00:53:04.701Z,3.30
2023-01-18T00:53:35.650Z,3.10
2023-01-18T00:54:37.533Z,3.50
2023-01-18T00:55:08.453Z,3.60
2023-01-18T00:55:39.381Z,3.40
2023-01-18T00:56:10.344Z,3.40
2023-01-18T00:56:41.268Z,3.40
2023-01-18T00:57:12.206Z,3.50
2023-01-18T00:57:43.124Z,3.80
2023-01-18T00:58:14.032Z,3.50
2023-01-18T00:58:44.987Z,3.80
2023-01-18T00:59:15.904Z,3.60
2023-01-18T00:59:46.827Z,3.60
2023-01-18T01:00:17.744Z,3.40
2023-01-18T01:00:48.767Z,3.20
2023-01-18T01:01:19.323Z,3.70
2023-01-18T01:01:50.044Z,3.50
2023-01-18T01:02:20.544Z,3.50
2023-01-18T01:02:51.581Z,3.30
2023-01-18T01:03:22.423Z,3.40
2023-01-18T01:03:52.851Z,3.70
2023-01-18T01:04:23.737Z,3.50
2023-01-18T01:04:54.735Z,3.00
2023-01-18T01:05:25.631Z,3.30
2023-01-18T01:05:56.556Z,3.30
2023-01-18T01:06:27.461Z,3.50
2023-01-18T01:06:58.366Z,3.30
2023-01-18T01:07:29.302Z,3.60
2023-01-18T01:08:00.251Z,3.60
2023-01-18T01:08:31.156Z,3.30
2023-01-18T01:09:02.096Z,3.10
2023-01-18T01:09:33.036Z,3.40
2023-01-18T01:10:03.942Z,3.50
2023-01-18T01:10:34.853Z,3.10
2023-01-18T01:11:05.779Z,3.40
2023-01-18T01:11:36.698Z,3.30
2023-01-18T01:12:07.645Z,3.50
2023-01-18T01:12:38.579Z,3.20
2023-01-18T01:13:09.509Z,3.40
2023-01-18T01:13:40.418Z,3.20
2023-01-18T01:14:11.317Z,3.30
2023-01-18T01:14:42.238Z,3.60
2023-01-18T01:15:13.161Z,3.60
2023-01-18T01:15:44.077Z,3.40
2023-01-18T01:16:15.030Z,3.70
2023-01-18T01:16:45.949Z,3.50
2023-01-18T01:17:16.875Z,3.30
2023-01-18T01:17:47.857Z,3.60
2023-01-18T01:18:18.788Z,3.40
2023-01-18T01:18:49.705Z,3.70
2023-01-18T01:19:20.601Z,3.70
2023-01-18T01:19:51.505Z,3.50
2023-01-18T01:20:22.435Z,3.40
2023-01-18T01:20:53.357Z,3.50
2023-01-18T01:21:24.306Z,3.40
2023-01-18T01:21:55.229Z,3.50
2023-01-18T01:22:26.144Z,3.20
2023-01-18T01:22:57.308Z,3.80
2023-01-18T01:23:27.868Z,3.60
2023-01-18T01:23:58.757Z,3.50
2023-01-18T01:24:29.670Z,3.50
2023-01-18T01:25:00.617Z,3.50
2023-01-18T01:25:31.536Z,3.20
2023-01-18T01:26:02.455Z,3.40
2023-01-18T01:26:33.357Z,3.50
2023-01-18T01:27:04.269Z,3.40
2023-01-18T01:27:35.205Z,3.50
2023-01-18T01:28:06.120Z,3.40
2023-01-18T01:28:37.080Z,3.40
2023-01-18T01:29:38.915Z,3.50
2023-01-18T01:30:09.845Z,3.30
2023-01-18T01:30:40.766Z,3.30
2023-01-18T01:31:11.701Z,3.40
2023-01-18T01:31:42.653Z,3.10
2023-01-18T01:32:13.151Z,3.40
2023-01-18T01:32:44.051Z,3.10
2023-01-18T01:33:15.950Z,3.50
2023-01-18T01:33:45.861Z,3.40
2023-01-18T01:34:16.798Z,3.30
2023-01-18T01:34:47.729Z,3.10
2023-01-18T01:35:18.646Z,2.90
2023-01-18T01:35:49.564Z,3.10
2023-01-18T01:36:20.461Z,4.00
2023-01-18T01:36:51.352Z,3.30
2023-01-18T01:37:22.253Z,3.50
2023-01-18T01:37:53.180Z,3.00
2023-01-18T01:38:24.074Z,3.50
2023-01-18T01:38:55.023Z,3.10
2023-01-18T01:39:25.917Z,3.00
2023-01-18T01:39:56.858Z,3.30
2023-01-18T01:40:27.785Z,3.30
2023-01-18T01:40:58.702Z,2.80
2023-01-18T01:41:29.619Z,3.30
2023-01-18T01:42:00.536Z,3.20
2023-01-18T01:42:31.457Z,3.30
2023-01-18T01:43:02.337Z,2.90
2023-01-18T01:43:33.273Z,3.20
2023-01-18T01:44:04.193Z,3.00
2023-01-18T01:44:35.122Z,3.00
2023-01-18T01:45:06.035Z,3.10
2023-01-18T01:45:36.992Z,3.30
2023-01-18T01:46:38.832Z,3.50
2023-01-18T01:47:09.766Z,3.00
2023-01-18T01:47:40.673Z,3.20
2023-01-18T01:48:11.609Z,3.10
2023-01-18T01:48:42.556Z,3.30
2023-01-18T01:49:13.472Z,3.10
2023-01-18T01:49:44.392Z,2.90
2023-01-18T01:50:15.298Z,3.20
2023-01-18T01:50:46.206Z,3.20
2023-01-18T01:51:17.142Z,3.20
2023-01-18T01:51:48.069Z,3.10
2023-01-18T01:52:18.987Z,3.00
2023-01-18T01:52:49.921Z,3.30
2023-01-18T01:53:20.849Z,3.30
2023-01-18T01:53:51.754Z,3.20
2023-01-18T01:54:22.711Z,3.00
2023-01-18T01:54:53.615Z,3.10
2023-01-18T01:55:24.561Z,3.10
2023-01-18T01:55:55.481Z,3.20
2023-01-18T01:56:26.427Z,2.90
2023-01-18T01:56:57.377Z,3.10
2023-01-18T01:57:28.315Z,3.10
2023-01-18T01:57:59.235Z,2.90
2023-01-18T01:58:30.140Z,3.10
2023-01-18T01:59:01.057Z,3.50
2023-01-18T01:59:31.989Z,2.80
2023-01-18T02:00:02.931Z,3.00
2023-01-18T02:00:33.842Z,3.80
2023-01-18T02:01:04.927Z,2.80
2023-01-18T02:01:35.445Z,2.90
2023-01-18T02:02:06.151Z,2.80
2023-01-18T02:02:36.622Z,2.80
2023-01-18T02:03:07.527Z,3.10
2023-01-18T02:03:38.415Z,2.60
2023-01-18T02:04:09.347Z,2.70
2023-01-18T02:04:40.317Z,2.90
2023-01-18T02:05:11.207Z,2.20
2023-01-18T02:05:42.107Z,2.60
2023-01-18T02:06:13.032Z,2.20
2023-01-18T02:06:43.957Z,2.40
2023-01-18T02:07:14.865Z,2.30
2023-01-18T02:07:45.782Z,2.80
2023-01-18T02:08:16.717Z,2.60
2023-01-18T02:09:18.563Z,2.70
2023-01-18T02:09:49.517Z,2.50
2023-01-18T02:10:20.413Z,2.80
2023-01-18T02:10:51.312Z,2.20
2023-01-18T02:11:22.222Z,2.60
2023-01-18T02:11:53.121Z,2.40
2023-01-18T02:12:24.025Z,2.60
2023-01-18T02:12:55.375Z,2.40
2023-01-18T02:13:25.894Z,2.60
2023-01-18T02:13:56.800Z,2.30
2023-01-18T02:14:27.707Z,2.20
2023-01-18T02:14:58.636Z,2.30
2023-01-18T02:15:29.548Z,2.50
2023-01-18T02:16:00.434Z,2.30
2023-01-18T02:16:31.390Z,2.70
2023-01-18T02:17:02.302Z,2.40
2023-01-18T02:17:33.215Z,2.70
2023-01-18T02:18:04.148Z,2.30
2023-01-18T02:18:35.072Z,2.40
2023-01-18T02:19:06.008Z,2.90
2023-01-18T02:19:36.954Z,2.40
2023-01-18T02:20:07.869Z,2.30
2023-01-18T02:20:38.762Z,2.40
2023-01-18T02:21:09.671Z,2.40
2023-01-18T02:21:40.592Z,2.50
2023-01-18T02:22:11.531Z,2.50
2023-01-18T02:22:42.412Z,2.50
2023-01-18T02:23:13.342Z,2.40
2023-01-18T02:23:44.258Z,2.40
2023-01-18T02:24:15.149Z,2.30
2023-01-18T02:24:46.038Z,2.20
2023-01-18T02:25:16.983Z,2.20
2023-01-18T02:26:18.815Z,2.60
2023-01-18T02:26:49.738Z,2.40
2023-01-18T02:27:20.663Z,2.50
2023-01-18T02:27:51.572Z,2.50
2023-01-18T02:28:22.491Z,2.80
2023-01-18T02:28:53.408Z,2.30
2023-01-18T02:29:24.334Z,2.30
2023-01-18T02:29:55.248Z,2.50
2023-01-18T02:30:26.194Z,2.40
2023-01-18T02:30:57.160Z,2.70
2023-01-18T02:31:28.085Z,2.30
2023-01-18T02:31:59.031Z,2.40
2023-01-18T02:32:29.948Z,2.80
2023-01-18T02:33:00.876Z,2.40
2023-01-18T02:33:31.787Z,2.30
2023-01-18T02:34:02.715Z,2.30
2023-01-18T02:34:33.625Z,2.60
2023-01-18T02:35:04.549Z,2.50
2023-01-18T02:35:35.465Z,2.30
2023-01-18T02:36:06.401Z,2.60
2023-01-18T02:36:37.312Z,2.40
2023-01-18T02:37:08.230Z,2.40
2023-01-18T02:37:39.141Z,2.30
2023-01-18T02:38:10.096Z,2.40
2023-01-18T02:38:40.996Z,2.40
2023-01-18T02:39:11.914Z,2.50
2023-01-18T02:39:42.840Z,2.40
2023-01-18T02:40:13.776Z,2.50
2023-01-18T02:40:44.726Z,2.40
2023-01-18T02:41:15.609Z,2.60
2023-01-18T02:41:46.552Z,2.30
2023-01-18T02:42:17.472Z,2.30
2023-01-18T02:42:48.400Z,2.20
2023-01-18T02:43:19.314Z,2.10
2023-01-18T02:43:50.232Z,2.30
2023-01-18T02:44:21.150Z,2.20
2023-01-18T02:44:52.085Z,2.60
2023-01-18T02:45:23.011Z,2.30
2023-01-18T02:45:53.963Z,2.40
2023-01-18T02:46:24.932Z,2.50
2023-01-18T02:46:55.844Z,2.50
2023-01-18T02:47:26.783Z,2.30
2023-01-18T02:48:28.629Z,2.40
2023-01-18T02:48:59.571Z,2.30
2023-01-18T02:49:30.467Z,2.20
2023-01-18T02:50:01.403Z,2.50
2023-01-18T02:50:32.313Z,2.40
2023-01-18T02:51:03.236Z,2.30
2023-01-18T02:51:34.172Z,2.20
2023-01-18T02:52:05.074Z,2.30
2023-01-18T02:52:35.998Z,2.40
2023-01-18T02:53:06.979Z,2.50
2023-01-18T02:53:37.889Z,2.10
2023-01-18T02:54:08.803Z,2.50
2023-01-18T02:54:39.723Z,2.20
2023-01-18T02:55:10.638Z,2.20
2023-01-18T02:55:41.552Z,2.60
2023-01-18T02:56:12.488Z,2.40
2023-01-18T02:56:43.408Z,2.70
2023-01-18T02:57:14.335Z,2.10
2023-01-18T02:57:45.262Z,2.60
2023-01-18T02:58:16.185Z,2.50
2023-01-18T02:58:47.107Z,2.50
2023-01-18T02:59:18.033Z,2.20
2023-01-18T02:59:48.959Z,2.30
2023-01-18T03:00:19.858Z,2.40
2023-01-18T03:00:50.832Z,2.50
2023-01-18T03:01:21.925Z,2.20
2023-01-18T03:01:52.396Z,2.40
2023-01-18T03:02:23.414Z,2.60
2023-01-18T03:02:54.378Z,2.40
2023-01-18T03:03:25.311Z,2.30
2023-01-18T03:03:56.213Z,2.50
2023-01-18T03:04:27.142Z,2.40
2023-01-18T03:04:58.081Z,2.40
2023-01-18T03:05:29.000Z,2.40
2023-01-18T03:05:59.922Z,2.40
2023-01-18T03:06:30.841Z,2.50
2023-01-18T03:07:01.747Z,2.30
2023-01-18T03:07:32.676Z,2.10
2023-01-18T03:08:03.584Z,2.50
2023-01-18T03:08:34.487Z,2.40
2023-01-18T03:09:05.427Z,2.30
2023-01-18T03:09:36.348Z,2.50
2023-01-18T03:10:38.158Z,2.50
2023-01-18T03:11:09.097Z,2.50
2023-01-18T03:11:40.032Z,2.70
2023-01-18T03:12:10.933Z,2.60
2023-01-18T03:12:41.878Z,2.40
2023-01-18T03:13:12.821Z,2.80
2023-01-18T03:13:43.719Z,2.80
2023-01-18T03:14:14.640Z,2.60
2023-01-18T03:14:45.571Z,2.50
2023-01-18T03:15:16.507Z,2.70
2023-01-18T03:15:47.433Z,2.40
2023-01-18T03:16:18.335Z,2.40
2023-01-18T03:16:49.259Z,2.60
2023-01-18T03:17:20.199Z,2.90
2023-01-18T03:17:51.149Z,2.40
2023-01-18T03:18:22.065Z,2.50
2023-01-18T03:18:52.992Z,2.30
2023-01-18T03:19:23.930Z,2.70
2023-01-18T03:19:54.859Z,2.40
2023-01-18T03:20:25.811Z,2.40
2023-01-18T03:20:56.716Z,2.40
2023-01-18T03:21:27.659Z,2.70
2023-01-18T03:21:58.595Z,2.30
2023-01-18T03:22:29.519Z,2.40
2023-01-18T03:23:00.842Z,2.80
2023-01-18T03:23:31.428Z,2.40
2023-01-18T03:24:02.363Z,2.50
2023-01-18T03:24:33.287Z,2.70
2023-01-18T03:25:04.235Z,2.70
2023-01-18T03:25:35.162Z,2.40
2023-01-18T03:26:06.132Z,2.40
2023-01-18T03:26:37.154Z,2.80
2023-01-18T03:27:07.635Z,2.50
2023-01-18T03:27:38.531Z,2.40
2023-01-18T03:28:09.488Z,2.70
2023-01-18T03:28:40.428Z,2.50
2023-01-18T03:29:11.358Z,2.10
2023-01-18T03:29:42.251Z,2.70
2023-01-18T03:30:13.164Z,2.30
2023-01-18T03:30:44.135Z,2.50
2023-01-18T03:31:15.082Z,2.50
2023-01-18T03:31:45.978Z,2.40
2023-01-18T03:32:16.911Z,2.50
2023-01-18T03:32:47.806Z,2.20
2023-01-18T03:33:18.747Z,2.50
2023-01-18T03:33:49.696Z,2.30
2023-01-18T03:34:20.605Z,2.40
2023-01-18T03:34:51.526Z,2.30
2023-01-18T03:35:22.447Z,2.50
2023-01-18T03:35:53.341Z,2.40
2023-01-18T03:36:24.248Z,2.40
2023-01-18T03:36:55.157Z,2.40
2023-01-18T03:37:26.048Z,2.60
2023-01-18T03:37:56.956Z,2.20
2023-01-18T03:38:27.872Z,2.60
2023-01-18T03:38:58.810Z,2.30
2023-01-18T03:39:29.732Z,2.60
2023-01-18T03:40:00.670Z,2.40
2023-01-18T03:40:31.579Z,2.50
2023-01-18T03:41:02.476Z,2.40
2023-01-18T03:41:33.376Z,2.30
2023-01-18T03:42:04.299Z,2.70
2023-01-18T03:42:35.268Z,2.70
2023-01-18T03:43:06.169Z,3.10
2023-01-18T03:43:37.093Z,2.30
2023-01-18T03:44:08.022Z,2.50
2023-01-18T03:44:38.923Z,2.40
2023-01-18T03:45:09.858Z,2.30
2023-01-18T03:45:40.775Z,2.50
2023-01-18T03:46:11.765Z,2.50
2023-01-18T03:46:42.202Z,2.60
2023-01-18T03:47:13.117Z,2.70
2023-01-18T03:47:44.030Z,2.60
2023-01-18T03:48:14.965Z,2.30
2023-01-18T03:48:45.867Z,2.40
2023-01-18T03:49:16.797Z,2.50
2023-01-18T03:50:18.633Z,2.50
2023-01-18T03:50:49.571Z,2.40
2023-01-18T03:51:20.499Z,2.50
2023-01-18T03:51:51.426Z,2.30
2023-01-18T03:52:22.358Z,2.50
2023-01-18T03:52:53.273Z,2.40
2023-01-18T03:53:24.183Z,3.00
2023-01-18T03:53:55.095Z,2.60
2023-01-18T03:54:26.009Z,2.50
2023-01-18T03:54:56.897Z,2.40
2023-01-18T03:55:27.812Z,2.80
2023-01-18T03:55:58.751Z,3.10
2023-01-18T03:56:29.666Z,2.30
2023-01-18T03:57:00.600Z,2.40
2023-01-18T03:57:31.523Z,2.50
2023-01-18T03:58:02.476Z,2.40
2023-01-18T03:58:33.387Z,2.50
2023-01-18T03:59:04.307Z,2.90
2023-01-18T03:59:35.249Z,2.50
2023-01-18T04:00:06.161Z,2.80
2023-01-18T04:00:37.084Z,2.40
2023-01-18T04:01:08.049Z,2.50
2023-01-18T04:01:39.005Z,2.40
2023-01-18T04:02:09.926Z,2.50
2023-01-18T04:02:40.897Z,2.40
2023-01-18T04:03:11.888Z,2.60
2023-01-18T04:03:42.335Z,2.40
2023-01-18T04:04:13.250Z,2.50
2023-01-18T04:04:44.186Z,2.60
2023-01-18T04:05:15.120Z,2.60
2023-01-18T04:05:46.036Z,2.60
2023-01-18T04:06:16.975Z,2.30
2023-01-18T04:06:47.893Z,2.70
2023-01-18T04:07:18.803Z,2.60
2023-01-18T04:07:49.743Z,2.80
2023-01-18T04:08:20.647Z,2.40
2023-01-18T04:08:51.581Z,2.60
2023-01-18T04:09:22.513Z,2.70
2023-01-18T04:09:53.459Z,2.60
2023-01-18T04:10:24.384Z,2.70
2023-01-18T04:10:55.331Z,2.30
2023-01-18T04:11:26.264Z,2.70
2023-01-18T04:11:57.174Z,2.40
2023-01-18T04:12:28.092Z,2.80
2023-01-18T04:12:59.644Z,2.50
2023-01-18T04:13:29.877Z,2.40
2023-01-18T04:14:00.764Z,2.40
2023-01-18T04:14:31.682Z,2.70
2023-01-18T04:15:02.623Z,2.60
2023-01-18T04:15:33.521Z,2.60
2023-01-18T04:16:04.500Z,2.50
2023-01-18T04:16:34.957Z,2.70
2023-01-18T04:17:05.886Z,2.50
2023-01-18T04:17:36.810Z,2.80
2023-01-18T04:18:07.741Z,2.50
2023-01-18T04:18:38.659Z,2.70
2023-01-18T04:19:09.611Z,2.40
2023-01-18T04:19:40.571Z,2.40
2023-01-18T04:20:11.522Z,2.50
2023-01-18T04:20:42.429Z,2.40
2023-01-18T04:21:13.355Z,2.50
2023-01-18T04:21:44.276Z,2.40
2023-01-18T04:22:15.176Z,2.70
2023-01-18T04:22:46.089Z,2.40
2023-01-18T04:23:16.996Z,2.30
2023-01-18T04:23:47.918Z,2.60
2023-01-18T04:24:18.801Z,2.60
2023-01-18T04:24:49.733Z,2.70
2023-01-18T04:25:20.642Z,2.70
2023-01-18T04:25:51.562Z,2.20
2023-01-18T04:26:22.493Z,2.40
2023-01-18T04:26:53.391Z,2.20
2023-01-18T04:27:24.431Z,2.60
2023-01-18T04:27:54.819Z,2.40
2023-01-18T04:28:25.719Z,2.40
2023-01-18T04:28:56.657Z,2.60
2023-01-18T04:29:58.518Z,3.00
2023-01-18T04:30:29.433Z,2.60
2023-01-18T04:31:00.405Z,2.50
2023-01-18T04:31:31.368Z,2.50
2023-01-18T04:32:02.275Z,2.80
2023-01-18T04:32:33.200Z,2.60
2023-01-18T04:33:04.137Z,2.60
2023-01-18T04:33:35.038Z,2.60
2023-01-18T04:34:05.970Z,2.90
2023-01-18T04:34:36.864Z,2.90
2023-01-18T04:35:07.805Z,3.00
2023-01-18T04:35:38.720Z,2.70
2023-01-18T04:36:09.643Z,2.80
2023-01-18T04:36:40.552Z,2.70
2023-01-18T04:37:11.483Z,2.80
2023-01-18T04:37:42.395Z,3.00
2023-01-18T04:38:13.310Z,2.90
2023-01-18T04:38:44.222Z,2.60
2023-01-18T04:39:15.129Z,2.50
2023-01-18T04:39:46.071Z,2.70
2023-01-18T04:40:16.985Z,2.90
2023-01-18T04:40:47.911Z,3.30
2023-01-18T04:41:18.818Z,2.70
2023-01-18T04:41:49.729Z,3.00
2023-01-18T04:42:20.653Z,3.10
2023-01-18T04:42:51.557Z,3.10
2023-01-18T04:43:22.487Z,3.20
2023-01-18T04:43:53.419Z,3.00
2023-01-18T04:44:24.367Z,2.90
2023-01-18T04:44:55.263Z,3.00
2023-01-18T04:45:26.163Z,3.30
2023-01-18T04:45:57.095Z,2.90
2023-01-18T04:46:28.053Z,3.20
2023-01-18T04:46:58.959Z,3.20
2023-01-18T04:47:29.886Z,2.80
2023-01-18T04:48:00.815Z,2.70
2023-01-18T04:48:31.736Z,3.40
2023-01-18T04:49:02.680Z,2.90
2023-01-18T04:49:33.591Z,2.90
2023-01-18T04:50:04.531Z,2.90
2023-01-18T04:50:35.460Z,2.90
2023-01-18T04:51:06.396Z,3.00
2023-01-18T04:51:37.315Z,3.00
2023-01-18T04:52:08.234Z,2.80
2023-01-18T04:52:39.169Z,2.70
2023-01-18T04:53:10.098Z,2.90
2023-01-18T04:53:41.028Z,2.80
2023-01-18T04:54:11.958Z,2.90
2023-01-18T04:54:42.848Z,3.20
2023-01-18T04:55:13.763Z,2.60
2023-01-18T04:55:44.688Z,3.10
2023-01-18T04:56:15.590Z,2.50
2023-01-18T04:56:46.505Z,2.80
2023-01-18T04:57:17.423Z,3.00
2023-01-18T04:57:48.347Z,2.40
2023-01-18T04:58:19.270Z,2.60
2023-01-18T04:58:50.246Z,2.70
2023-01-18T04:59:21.141Z,2.70
2023-01-18T04:59:52.057Z,2.50
2023-01-18T05:00:22.965Z,2.40
2023-01-18T05:00:53.989Z,2.30
2023-01-18T05:01:24.556Z,2.50
2023-01-18T05:01:55.016Z,2.40
2023-01-18T05:02:26.005Z,2.40
2023-01-18T05:02:57.291Z,2.50
2023-01-18T05:03:27.416Z,2.60
2023-01-18T05:03:58.365Z,2.50
2023-01-18T05:04:29.285Z,2.80
2023-01-18T05:05:00.228Z,2.70
2023-01-18T05:05:31.144Z,2.40
2023-01-18T05:06:02.052Z,2.40
2023-01-18T05:06:32.949Z,2.70
2023-01-18T05:07:03.878Z,2.40
2023-01-18T05:07:34.793Z,2.70
2023-01-18T05:08:05.735Z,2.50
2023-01-18T05:08:36.645Z,2.50
2023-01-18T05:09:07.574Z,2.90
2023-01-18T05:09:38.489Z,2.60
2023-01-18T05:10:09.411Z,2.70
2023-01-18T05:10:40.327Z,2.60
2023-01-18T05:11:11.289Z,2.70
2023-01-18T05:11:42.198Z,2.90
2023-01-18T05:12:13.143Z,2.20
2023-01-18T05:12:44.061Z,2.70
2023-01-18T05:13:14.989Z,2.70
2023-01-18T05:13:45.888Z,2.70
2023-01-18T05:14:16.817Z,2.90
2023-01-18T05:14:47.745Z,2.80
2023-01-18T05:15:18.699Z,2.70
2023-01-18T05:15:49.589Z,2.80
2023-01-18T05:16:20.561Z,3.10
2023-01-18T05:16:51.457Z,2.70
2023-01-18T05:17:22.372Z,2.60
2023-01-18T05:17:53.259Z,2.40
2023-01-18T05:18:24.167Z,3.10
2023-01-18T05:18:55.087Z,3.40
2023-01-18T05:19:25.985Z,2.80
2023-01-18T05:19:56.907Z,2.70
2023-01-18T05:20:27.831Z,2.70
2023-01-18T05:20:58.773Z,2.90
2023-01-18T05:21:29.698Z,3.30
2023-01-18T05:22:00.600Z,2.80
2023-01-18T05:22:31.520Z,2.90
2023-01-18T05:23:02.437Z,3.30
2023-01-18T05:23:33.322Z,2.90
2023-01-18T05:24:04.227Z,2.90
2023-01-18T05:24:35.154Z,2.70
2023-01-18T05:25:06.056Z,2.80
2023-01-18T05:25:36.972Z,3.10
2023-01-18T05:26:07.907Z,2.70
2023-01-18T05:26:38.827Z,2.90
2023-01-18T05:27:09.750Z,2.70
2023-01-18T05:27:40.679Z,3.00
2023-01-18T05:28:11.600Z,3.30
2023-01-18T05:28:42.530Z,3.50
2023-01-18T05:29:13.464Z,3.20
2023-01-18T05:29:44.389Z,2.80
2023-01-18T05:30:15.315Z,3.20
2023-01-18T05:30:46.243Z,3.00
2023-01-18T05:31:47.939Z,3.10
2023-01-18T05:32:18.524Z,3.40
2023-01-18T05:32:49.489Z,3.10
2023-01-18T05:33:20.391Z,3.10
2023-01-18T05:33:51.486Z,3.00
2023-01-18T05:34:21.942Z,2.70
2023-01-18T05:34:52.866Z,3.20
2023-01-18T05:35:23.872Z,2.70
2023-01-18T05:35:54.911Z,3.00
2023-01-18T05:36:25.404Z,3.00
2023-01-18T05:36:56.612Z,2.90
2023-01-18T05:37:27.590Z,3.30
2023-01-18T05:38:28.748Z,2.90
2023-01-18T05:38:59.384Z,3.30
2023-01-18T05:39:29.907Z,3.10
2023-01-18T05:40:00.474Z,2.70
2023-01-18T05:40:30.980Z,3.40
2023-01-18T05:41:01.999Z,3.50
2023-01-18T05:41:32.496Z,3.30
2023-01-18T05:42:03.499Z,3.10
2023-01-18T05:42:34.493Z,2.90
2023-01-18T05:43:04.891Z,3.10
2023-01-18T05:43:35.906Z,3.00
2023-01-18T05:44:06.356Z,3.00
2023-01-18T05:44:37.368Z,2.70
2023-01-18T05:45:07.882Z,3.10
2023-01-18T05:45:38.983Z,3.00
2023-01-18T05:46:09.621Z,3.00
2023-01-18T05:46:40.145Z,2.60
2023-01-18T05:47:11.180Z,2.80
2023-01-18T05:47:41.721Z,2.70
2023-01-18T05:48:12.286Z,3.00
2023-01-18T05:48:42.837Z,2.80
2023-01-18T05:49:13.314Z,2.80
2023-01-18T05:49:44.361Z,3.00
2023-01-18T05:50:14.914Z,3.00
2023-01-18T05:50:45.418Z,2.60
2023-01-18T05:51:15.473Z,2.70
2023-01-18T05:51:46.718Z,2.90
2023-01-18T05:52:17.553Z,2.80
2023-01-18T05:52:48.217Z,2.70
2023-01-18T05:53:18.708Z,2.90
2023-01-18T05:53:49.668Z,2.40
2023-01-18T05:54:20.617Z,2.70
2023-01-18T05:54:51.544Z,2.60
2023-01-18T05:55:22.449Z,2.60
2023-01-18T05:55:53.359Z,2.50
2023-01-18T05:56:24.310Z,2.60
2023-01-18T05:56:55.240Z,2.50
2023-01-18T05:57:26.155Z,2.60
2023-01-18T05:57:57.075Z,2.80
2023-01-18T05:58:28.052Z,2.60
2023-01-18T05:58:58.990Z,2.90
2023-01-18T05:59:29.881Z,2.70
2023-01-18T06:00:00.810Z,2.50
2023-01-18T06:00:31.732Z,2.40
2023-01-18T06:01:02.736Z,2.50
2023-01-18T06:01:33.212Z,2.80
2023-01-18T06:02:04.148Z,2.70
2023-01-18T06:02:35.096Z,2.70
2023-01-18T06:03:06.005Z,2.80
2023-01-18T06:03:36.928Z,2.40
2023-01-18T06:04:07.926Z,2.40
2023-01-18T06:04:38.362Z,2.60
2023-01-18T06:05:09.300Z,2.60
2023-01-18T06:05:40.204Z,2.20
2023-01-18T06:06:11.099Z,2.60
2023-01-18T06:06:42.014Z,2.70
2023-01-18T06:07:12.918Z,2.40
2023-01-18T06:07:43.827Z,2.70
2023-01-18T06:08:14.828Z,2.60
2023-01-18T06:08:45.743Z,2.90
2023-01-18T06:09:16.669Z,2.70
2023-01-18T06:09:47.592Z,2.90
2023-01-18T06:10:18.493Z,2.70
2023-01-18T06:10:49.441Z,2.60
2023-01-18T06:11:20.359Z,2.60
2023-01-18T06:11:51.294Z,2.60
2023-01-18T06:12:21.775Z,2.20
2023-01-18T06:12:52.709Z,2.60
2023-01-18T06:13:23.606Z,2.60
2023-01-18T06:13:54.570Z,2.60
2023-01-18T06:14:25.499Z,2.50
2023-01-18T06:14:56.440Z,2.70
2023-01-18T06:15:27.344Z,2.40
2023-01-18T06:15:58.281Z,2.40
2023-01-18T06:16:29.240Z,2.60
2023-01-18T06:17:00.189Z,2.90
2023-01-18T06:17:31.088Z,2.40
2023-01-18T06:18:02.009Z,2.80
2023-01-18T06:18:32.944Z,2.60
2023-01-18T06:19:03.846Z,2.90
2023-01-18T06:19:34.749Z,2.20
2023-01-18T06:20:05.704Z,2.50
2023-01-18T06:20:36.640Z,2.60
2023-01-18T06:21:07.559Z,2.30
2023-01-18T06:21:38.472Z,2.70
2023-01-18T06:22:09.399Z,2.90
2023-01-18T06:22:40.322Z,2.70
2023-01-18T06:23:11.237Z,2.60
2023-01-18T06:23:42.138Z,2.70
2023-01-18T06:24:13.082Z,2.60
2023-01-18T06:24:44.011Z,2.60
2023-01-18T06:25:14.924Z,2.50
2023-01-18T06:25:45.845Z,2.80
2023-01-18T06:26:16.799Z,2.50
2023-01-18T06:26:47.697Z,2.50
2023-01-18T06:27:18.623Z,2.40
2023-01-18T06:27:49.558Z,2.60
2023-01-18T06:28:20.494Z,2.80
2023-01-18T06:28:51.395Z,2.70
2023-01-18T06:29:22.342Z,2.90
2023-01-18T06:29:53.240Z,2.50
2023-01-18T06:30:24.150Z,2.70
2023-01-18T06:30:55.123Z,2.40
2023-01-18T06:31:26.108Z,2.60
2023-01-18T06:31:56.637Z,2.70
2023-01-18T06:32:27.068Z,2.40
2023-01-18T06:32:58.276Z,2.80
2023-01-18T06:33:28.843Z,2.40
2023-01-18T06:33:59.761Z,2.40
2023-01-18T06:34:30.622Z,2.60
2023-01-18T06:35:01.578Z,2.70
2023-01-18T06:35:32.449Z,2.80
2023-01-18T06:36:03.358Z,2.60
2023-01-18T06:36:34.193Z,2.70
2023-01-18T06:37:05.040Z,2.40
2023-01-18T06:37:35.890Z,2.50
2023-01-18T06:38:06.819Z,2.60
2023-01-18T06:38:37.738Z,2.60
2023-01-18T06:39:08.614Z,2.80
2023-01-18T06:39:39.497Z,3.10
2023-01-18T06:40:10.350Z,2.30
2023-01-18T06:40:41.242Z,2.80
2023-01-18T06:41:12.127Z,2.50
2023-01-18T06:41:42.970Z,2.60
2023-01-18T06:42:13.805Z,3.00
2023-01-18T06:42:44.664Z,2.50
2023-01-18T06:43:15.543Z,2.50
2023-01-18T06:43:46.382Z,2.70
2023-01-18T06:44:17.254Z,2.90
2023-01-18T06:44:48.126Z,2.60
2023-01-18T06:45:18.962Z,3.10
2023-01-18T06:45:52.242Z,2.50
2023-01-18T06:46:20.784Z,2.50
2023-01-18T06:46:51.669Z,3.00
2023-01-18T06:47:22.550Z,2.40
2023-01-18T06:47:53.474Z,2.80
2023-01-18T06:48:24.319Z,2.50
2023-01-18T06:48:55.178Z,2.40
2023-01-18T06:49:26.083Z,2.70
2023-01-18T06:49:56.956Z,2.70
2023-01-18T06:50:27.846Z,2.70
2023-01-18T06:50:58.755Z,2.70
2023-01-18T06:51:29.669Z,2.60
2023-01-18T06:52:00.547Z,2.60
2023-01-18T06:52:31.401Z,2.80
2023-01-18T06:53:02.249Z,3.00
2023-01-18T06:53:33.116Z,2.60
2023-01-18T06:54:03.973Z,2.70
2023-01-18T06:54:34.832Z,2.40
2023-01-18T06:55:05.719Z,2.60
2023-01-18T06:55:36.566Z,2.40
2023-01-18T06:56:07.435Z,2.70
2023-01-18T06:56:38.315Z,2.60
2023-01-18T06:57:09.191Z,2.70
2023-01-18T06:57:40.053Z,2.60